createdAt,value
2023-09-13T00:00:49.529Z,164396.38
2023-09-13T00:03:54.243Z,164249.09
2023-09-13T00:06:58.904Z,164158.44
2023-09-13T00:10:03.118Z,164087.50
2023-09-13T00:13:08.507Z,164049.41
2023-09-13T00:16:12.953Z,164042.84
2023-09-13T00:19:17.750Z,164032.31
2023-09-13T00:22:22.127Z,164042.84
2023-09-13T00:25:26.229Z,164037.59
2023-09-13T00:28:30.390Z,164046.78
2023-09-13T00:31:34.631Z,164041.50
2023-09-13T00:34:38.917Z,164053.31
2023-09-13T00:37:43.142Z,164045.47
2023-09-13T00:40:47.485Z,164038.94
2023-09-13T00:43:51.714Z,164031.00
2023-09-13T00:46:56.126Z,164019.19
2023-09-13T00:50:00.524Z,163994.25
2023-09-13T00:53:05.427Z,164000.78
2023-09-13T00:56:12.573Z,163991.59
2023-09-13T00:59:16.991Z,163971.91
2023-09-13T01:02:21.494Z,163983.72
2023-09-13T01:05:26.532Z,163988.97
2023-09-13T01:08:30.604Z,163999.44
2023-09-13T01:11:34.734Z,163995.53
2023-09-13T01:14:38.818Z,163974.53
2023-09-13T01:17:59.811Z,163960.09
2023-09-13T01:21:37.440Z,163939.06
2023-09-13T01:25:19.254Z,163927.25
2023-09-13T01:28:48.619Z,163954.78
2023-09-13T01:31:54.394Z,163971.91
2023-09-13T01:34:59.103Z,163979.75
2023-09-13T01:38:03.302Z,163962.72
2023-09-13T01:41:30.693Z,163956.13
2023-09-13T01:44:37.093Z,163982.41
2023-09-13T01:47:43.957Z,163982.41
2023-09-13T01:50:49.192Z,163948.25
2023-09-13T01:53:55.635Z,163931.22
2023-09-13T01:56:59.890Z,163923.28
2023-09-13T02:00:07.613Z,163918.06
2023-09-13T02:03:11.404Z,163924.56
2023-09-13T02:06:15.594Z,163922.00
2023-09-13T02:09:19.546Z,163919.38
2023-09-13T02:12:23.653Z,163919.38
2023-09-13T02:15:28.515Z,163910.19
2023-09-13T02:18:32.650Z,163895.69
2023-09-13T02:21:36.836Z,163891.75
2023-09-13T02:24:41.073Z,163879.91
2023-09-13T02:27:45.464Z,163862.88
2023-09-13T02:30:49.750Z,163852.38
2023-09-13T02:33:55.414Z,163834.00
2023-09-13T02:36:59.757Z,163827.41
2023-09-13T02:40:06.998Z,163819.56
2023-09-13T02:47:15.253Z,163786.66
2023-09-13T02:50:18.832Z,163774.84
2023-09-13T02:53:22.891Z,163767.00
2023-09-13T02:56:26.254Z,163774.84
2023-09-13T02:59:32.736Z,163763.03
2023-09-13T03:02:36.988Z,163764.38
2023-09-13T03:05:41.272Z,163761.69
2023-09-13T03:08:45.364Z,163732.84
2023-09-13T03:11:49.683Z,163709.22
2023-09-13T03:14:56.202Z,163698.72
2023-09-13T03:18:01.829Z,163693.44
2023-09-13T03:21:10.686Z,163688.22
2023-09-13T03:24:15.037Z,163682.91
2023-09-13T03:27:19.120Z,163677.72
2023-09-13T03:30:23.288Z,163678.97
2023-09-13T03:33:27.572Z,163673.78
2023-09-13T03:36:31.807Z,163659.28
2023-09-13T03:39:36.093Z,163638.28
2023-09-13T03:42:40.201Z,163638.28
2023-09-13T03:45:44.498Z,163633.00
2023-09-13T03:48:50.183Z,163623.84
2023-09-13T03:51:55.222Z,163610.72
2023-09-13T03:54:59.626Z,163598.91
2023-09-13T03:58:04.268Z,163592.31
2023-09-13T04:01:08.567Z,163587.03
2023-09-13T04:04:12.865Z,163585.81
2023-09-13T04:07:17.851Z,163589.72
2023-09-13T04:10:22.243Z,163581.84
2023-09-13T04:13:27.148Z,163576.56
2023-09-13T04:16:31.402Z,163569.97
2023-09-13T04:19:35.537Z,163534.56
2023-09-13T04:22:40.022Z,163535.88
2023-09-13T04:25:44.130Z,163535.88
2023-09-13T04:28:48.250Z,163538.50
2023-09-13T04:31:52.396Z,163543.75
2023-09-13T04:34:56.846Z,163531.94
2023-09-13T04:38:00.964Z,163529.28
2023-09-13T04:41:06.511Z,163539.84
2023-09-13T04:44:10.582Z,163531.94
2023-09-13T04:47:14.568Z,163524.03
2023-09-13T04:50:18.646Z,163526.72
2023-09-13T04:53:23.352Z,163522.75
2023-09-13T04:56:27.252Z,163517.47
2023-09-13T04:59:49.521Z,163521.41
2023-09-13T05:02:53.466Z,163522.75
2023-09-13T05:05:44.748Z,163524.03
2023-09-13T05:08:50.921Z,163513.56
2023-09-13T05:11:55.274Z,163514.91
2023-09-13T05:14:59.907Z,163521.41
2023-09-13T05:18:04.364Z,163518.78
2023-09-13T05:21:08.445Z,163530.59
2023-09-13T05:24:12.607Z,163543.75
2023-09-13T05:27:16.572Z,163543.75
2023-09-13T05:30:20.739Z,163550.31
2023-09-13T05:33:27.532Z,163546.38
2023-09-13T05:36:31.653Z,163546.38
2023-09-13T05:39:35.757Z,163539.84
2023-09-13T05:42:39.921Z,163542.41
2023-09-13T05:45:44.306Z,163548.97
2023-09-13T05:48:48.514Z,163569.97
2023-09-13T05:51:52.715Z,163579.19
2023-09-13T05:54:56.777Z,163587.03
2023-09-13T05:58:00.846Z,163601.53
2023-09-13T06:01:06.861Z,163605.47
2023-09-13T06:04:11.215Z,163614.66
2023-09-13T06:07:15.602Z,163676.38
2023-09-13T06:10:19.742Z,163756.53
2023-09-13T06:13:24.093Z,163830.03
2023-09-13T06:16:30.232Z,163907.50
2023-09-13T06:19:35.030Z,164000.78
2023-09-13T06:22:39.248Z,164042.84
2023-09-13T06:25:43.805Z,164054.66
2023-09-13T06:28:47.665Z,164141.38
2023-09-13T06:32:05.202Z,164183.44
2023-09-13T06:35:15.667Z,164258.38
2023-09-13T06:38:21.043Z,164253.06
2023-09-13T06:41:26.378Z,164299.09
2023-09-13T06:44:45.416Z,164337.22
2023-09-13T06:47:51.513Z,164439.78
2023-09-13T06:54:05.725Z,164568.56
2023-09-13T06:57:13.734Z,164563.34
2023-09-13T07:00:27.236Z,164631.72
2023-09-13T07:03:40.056Z,164661.94
2023-09-13T07:06:45.127Z,164633.00
2023-09-13T07:09:49.327Z,164689.59
2023-09-13T07:12:53.833Z,164705.34
2023-09-13T07:15:58.260Z,164773.75
2023-09-13T07:19:04.632Z,164713.22
2023-09-13T07:22:08.760Z,164671.16
2023-09-13T07:25:13.957Z,164714.56
2023-09-13T07:28:18.315Z,164727.72
2023-09-13T07:31:22.508Z,164744.78
2023-09-13T07:34:31.977Z,164723.72
2023-09-13T07:37:36.820Z,164759.22
2023-09-13T07:40:41.342Z,164752.69
2023-09-13T07:43:45.272Z,164702.72
2023-09-13T07:46:49.643Z,164647.47
2023-09-13T07:49:53.950Z,164609.34
2023-09-13T07:53:05.219Z,164630.38
2023-09-13T07:56:11.299Z,164672.50
2023-09-13T07:59:17.149Z,164675.06
2023-09-13T08:02:21.281Z,164757.94
2023-09-13T08:05:25.120Z,164876.31
2023-09-13T08:08:31.811Z,164864.47
2023-09-13T08:11:36.068Z,164813.19
2023-09-13T08:14:41.124Z,164800.00
2023-09-13T08:17:46.236Z,164780.28
2023-09-13T08:20:51.461Z,164800.00
2023-09-13T08:23:55.276Z,164760.56
2023-09-13T08:26:59.480Z,164754.00
2023-09-13T08:30:04.990Z,164780.28
2023-09-13T08:33:11.643Z,164807.88
2023-09-13T08:36:18.342Z,164824.97
2023-09-13T08:39:25.997Z,164868.44
2023-09-13T08:42:30.906Z,164784.25
2023-09-13T08:45:35.941Z,164811.84
2023-09-13T08:48:41.671Z,164842.06
2023-09-13T08:51:46.830Z,164813.19
2023-09-13T08:54:59.211Z,164735.59
2023-09-13T08:58:04.144Z,164738.22
2023-09-13T09:01:11.090Z,164723.72
2023-09-13T09:04:17.339Z,164707.97
2023-09-13T09:07:22.796Z,164793.47
2023-09-13T09:10:27.029Z,164857.88
2023-09-13T09:13:32.337Z,164857.88
2023-09-13T09:16:37.155Z,164944.72
2023-09-13T09:19:42.147Z,164949.97
2023-09-13T09:22:46.614Z,164973.66
2023-09-13T09:25:51.800Z,165039.44
2023-09-13T09:28:56.086Z,165042.06
2023-09-13T09:32:01.173Z,164999.94
2023-09-13T09:35:06.385Z,164974.94
2023-09-13T09:38:24.140Z,164960.53
2023-09-13T09:41:38.266Z,164926.28
2023-09-13T09:44:42.442Z,164923.72
2023-09-13T09:47:47.116Z,164881.56
2023-09-13T09:50:55.085Z,164896.06
2023-09-13T09:53:59.255Z,164852.63
2023-09-13T09:57:03.815Z,164881.56
2023-09-13T10:00:09.827Z,164890.75
2023-09-13T10:03:19.028Z,164834.19
2023-09-13T10:06:23.403Z,164754.00
2023-09-13T10:09:41.440Z,164713.22
2023-09-13T10:12:52.045Z,164710.63
2023-09-13T10:15:56.422Z,164736.91
2023-09-13T10:19:04.558Z,164757.94
2023-09-13T10:22:09.790Z,164760.56
2023-09-13T10:25:17.156Z,164792.13
2023-09-13T10:28:23.594Z,164863.13
2023-09-13T10:31:36.273Z,164943.38
2023-09-13T10:34:49.436Z,164955.22
2023-09-13T10:38:14.683Z,165010.50
2023-09-13T10:41:20.118Z,165053.88
2023-09-13T10:44:24.769Z,165102.59
2023-09-13T10:47:30.197Z,165097.31
2023-09-13T10:50:34.734Z,165063.09
2023-09-13T10:53:38.886Z,165023.69
2023-09-13T10:56:43.606Z,164993.38
2023-09-13T10:59:49.244Z,164960.53
2023-09-13T11:02:53.596Z,164959.19
2023-09-13T11:05:58.919Z,164984.16
2023-09-13T11:09:14.441Z,165007.81
2023-09-13T11:12:19.179Z,164986.78
2023-09-13T11:15:25.332Z,165023.69
2023-09-13T11:18:29.635Z,165019.72
2023-09-13T11:21:55.839Z,164976.28
2023-09-13T11:25:24.331Z,164999.94
2023-09-13T11:28:45.426Z,165063.09
2023-09-13T11:32:07.023Z,165089.41
2023-09-13T11:35:11.790Z,165128.88
2023-09-13T11:38:18.066Z,165152.59
2023-09-13T11:41:22.323Z,165139.44
2023-09-13T11:44:33.454Z,165048.66
2023-09-13T11:47:39.106Z,165002.63
2023-09-13T11:50:50.623Z,164955.22
2023-09-13T11:53:56.160Z,164918.41
2023-09-13T11:57:22.458Z,164877.66
2023-09-13T12:00:31.965Z,164813.19
2023-09-13T12:06:54.110Z,164756.66
2023-09-13T12:10:00.302Z,164761.88
2023-09-13T12:13:16.957Z,164776.38
2023-09-13T12:16:31.220Z,164785.59
2023-09-13T12:19:37.362Z,164789.50
2023-09-13T12:22:42.209Z,164778.97
2023-09-13T12:25:47.446Z,164736.91
2023-09-13T12:28:53.957Z,164655.34
2023-09-13T12:31:59.927Z,164563.34
2023-09-13T12:35:04.651Z,164508.09
2023-09-13T12:38:09.195Z,164467.38
2023-09-13T12:41:17.922Z,164408.19
2023-09-13T12:44:22.050Z,164364.84
2023-09-13T12:47:26.405Z,164350.38
2023-09-13T12:50:34.478Z,164355.63
2023-09-13T12:53:39.885Z,164371.38
2023-09-13T12:56:44.255Z,164397.69
2023-09-13T12:59:51.552Z,164431.88
2023-09-13T13:02:56.013Z,164497.63
2023-09-13T13:06:02.378Z,164565.94
2023-09-13T13:09:10.710Z,164615.88
2023-09-13T13:12:16.366Z,164660.66
2023-09-13T13:15:20.627Z,164664.56
2023-09-13T13:18:25.107Z,164665.84
2023-09-13T13:21:38.724Z,164680.38
2023-09-13T13:24:45.422Z,164675.06
2023-09-13T13:27:49.526Z,164665.84
2023-09-13T13:30:57.337Z,164647.47
2023-09-13T13:34:01.505Z,164644.81
2023-09-13T13:37:05.373Z,164642.22
2023-09-13T13:40:09.957Z,164627.75
2023-09-13T13:43:14.146Z,164647.47
2023-09-13T13:46:18.681Z,164618.56
2023-09-13T13:49:22.525Z,164634.34
2023-09-13T13:52:26.747Z,164660.66
2023-09-13T13:55:30.976Z,164676.41
2023-09-13T13:58:34.974Z,164690.88
2023-09-13T14:01:39.075Z,164696.13
2023-09-13T14:04:43.416Z,164754.00
2023-09-13T14:07:47.331Z,164796.03
2023-09-13T14:10:54.128Z,164763.19
2023-09-13T14:13:58.334Z,164721.09
2023-09-13T14:17:04.858Z,164690.88
2023-09-13T14:20:09.649Z,164679.03
2023-09-13T14:23:15.077Z,164673.72
2023-09-13T14:26:19.135Z,164669.81
2023-09-13T14:29:23.538Z,164685.63
2023-09-13T14:32:28.089Z,164727.72
2023-09-13T14:35:32.629Z,164761.88
2023-09-13T14:38:36.897Z,164796.03
2023-09-13T14:41:42.152Z,164797.38
2023-09-13T14:44:46.300Z,164802.69
2023-09-13T14:47:50.609Z,164777.66
2023-09-13T14:50:54.782Z,164765.81
2023-09-13T14:53:58.895Z,164763.19
2023-09-13T14:57:03.406Z,164760.56
2023-09-13T15:00:09.675Z,164763.19
2023-09-13T15:03:14.142Z,164763.19
2023-09-13T15:06:19.486Z,164765.81
2023-09-13T15:09:23.933Z,164752.69
2023-09-13T15:12:29.783Z,164727.72
2023-09-13T15:15:33.848Z,164715.84
2023-09-13T15:18:38.244Z,164702.72
2023-09-13T15:21:42.674Z,164701.41
2023-09-13T15:24:46.790Z,164713.22
2023-09-13T15:27:50.574Z,164702.72
2023-09-13T15:30:54.990Z,164723.72
2023-09-13T15:33:59.620Z,164727.72
2023-09-13T15:37:04.453Z,164705.34
2023-09-13T15:40:09.365Z,164689.59
2023-09-13T15:43:13.583Z,164675.06
2023-09-13T15:46:18.020Z,164676.41
2023-09-13T15:49:25.230Z,164652.78
2023-09-13T15:52:29.862Z,164647.47
2023-09-13T15:55:37.465Z,164636.94
2023-09-13T15:58:44.435Z,164631.72
2023-09-13T16:01:49.057Z,164650.09
2023-09-13T16:04:53.146Z,164660.66
2023-09-13T16:07:57.059Z,164650.09
2023-09-13T16:11:01.739Z,164633.00
2023-09-13T16:14:06.101Z,164635.63
2023-09-13T16:17:10.452Z,164630.38
2023-09-13T16:20:14.674Z,164634.34
2023-09-13T16:23:18.887Z,164636.94
2023-09-13T16:26:23.143Z,164635.63
2023-09-13T16:29:27.673Z,164625.09
2023-09-13T16:32:33.692Z,164634.34
2023-09-13T16:35:37.861Z,164629.03
2023-09-13T16:38:41.665Z,164622.50
2023-09-13T16:41:46.508Z,164633.00
2023-09-13T16:44:50.732Z,164621.19
2023-09-13T16:47:54.793Z,164619.84
2023-09-13T16:50:59.111Z,164596.16
2023-09-13T16:54:05.486Z,164593.59
2023-09-13T16:57:09.649Z,164564.66
2023-09-13T17:00:14.121Z,164455.53
2023-09-13T17:03:18.652Z,164301.72
2023-09-13T17:06:23.044Z,164224.16
2023-09-13T17:09:27.461Z,164163.75
2023-09-13T17:12:31.424Z,164124.31
2023-09-13T17:15:35.738Z,164111.16
2023-09-13T17:18:40.104Z,164111.16
2023-09-13T17:21:44.021Z,164099.34
2023-09-13T17:24:48.185Z,164070.44
2023-09-13T17:27:52.277Z,164058.63
2023-09-13T17:30:56.738Z,164037.59
2023-09-13T17:34:01.112Z,164027.09
2023-09-13T17:37:05.238Z,164016.56
2023-09-13T17:40:09.839Z,164011.28
2023-09-13T17:43:13.923Z,164012.63
2023-09-13T17:46:18.297Z,163994.25
2023-09-13T17:49:22.960Z,163974.53
2023-09-13T17:52:26.981Z,163956.13
2023-09-13T17:55:32.333Z,163953.50
2023-09-13T17:58:36.594Z,163950.88
2023-09-13T18:01:45.314Z,163944.31
2023-09-13T18:04:51.494Z,163932.50
2023-09-13T18:07:59.270Z,163937.72
2023-09-13T18:11:04.533Z,163935.09
2023-09-13T18:14:10.131Z,163948.25
2023-09-13T18:17:14.141Z,163946.94
2023-09-13T18:20:18.227Z,163929.88
2023-09-13T18:23:22.359Z,163882.53
2023-09-13T18:26:26.622Z,163840.50
2023-09-13T18:29:31.025Z,163809.03
2023-09-13T18:32:34.932Z,163767.00
2023-09-13T18:35:38.829Z,163724.94
2023-09-13T18:38:43.547Z,163718.41
2023-09-13T18:41:48.764Z,163688.22
2023-09-13T18:44:52.993Z,163669.75
2023-09-13T18:47:57.203Z,163667.16
2023-09-13T18:51:04.678Z,163672.44
2023-09-13T18:54:08.883Z,163665.88
2023-09-13T18:57:13.295Z,163652.75
2023-09-13T19:00:17.747Z,163651.44
2023-09-13T19:03:21.867Z,163643.56
2023-09-13T19:06:26.265Z,163627.81
2023-09-13T19:09:30.094Z,163617.28
2023-09-13T19:12:34.318Z,163608.09
2023-09-13T19:15:38.510Z,163575.22
2023-09-13T19:18:44.392Z,163556.91
2023-09-13T19:21:49.085Z,163548.97
2023-09-13T19:24:57.404Z,163525.38
2023-09-13T19:28:02.125Z,163521.41
2023-09-13T19:31:06.580Z,163491.22
2023-09-13T19:34:10.801Z,163486.00
2023-09-13T19:37:15.669Z,163486.00
2023-09-13T19:40:20.673Z,163461.03
2023-09-13T19:43:26.362Z,163440.06
2023-09-13T19:46:30.356Z,163409.88
2023-09-13T19:49:34.383Z,163401.97
2023-09-13T19:52:38.780Z,163380.97
2023-09-13T19:55:43.170Z,163354.69
2023-09-13T19:58:48.945Z,163344.22
2023-09-13T20:01:53.593Z,163327.13
2023-09-13T20:04:57.569Z,163331.09
2023-09-13T20:08:01.543Z,163317.97
2023-09-13T20:11:05.412Z,163303.47
2023-09-13T20:14:09.566Z,163298.31
2023-09-13T20:17:13.815Z,163286.50
2023-09-13T20:20:17.517Z,163266.75
2023-09-13T20:23:21.576Z,163261.56
2023-09-13T20:26:25.704Z,163228.69
2023-09-13T20:29:30.588Z,163202.47
2023-09-13T20:32:35.027Z,163170.97
2023-09-13T20:35:39.175Z,163152.59
2023-09-13T20:38:43.671Z,163153.88
2023-09-13T20:41:48.155Z,163143.41
2023-09-13T20:44:52.409Z,163136.91
2023-09-13T20:47:56.717Z,163105.34
2023-09-13T20:51:04.717Z,163096.19
2023-09-13T20:54:08.968Z,163075.16
2023-09-13T20:57:13.244Z,163062.06
2023-09-13T21:00:17.529Z,163047.66
2023-09-13T21:03:21.855Z,163054.19
2023-09-13T21:06:26.021Z,163045.03
2023-09-13T21:09:30.047Z,163039.75
2023-09-13T21:12:34.235Z,163031.91
2023-09-13T21:15:38.414Z,163035.81
2023-09-13T21:18:43.112Z,163031.91
2023-09-13T21:21:47.343Z,163034.53
2023-09-13T21:24:51.872Z,163029.25
2023-09-13T21:27:55.821Z,163030.59
2023-09-13T21:30:59.985Z,163004.34
2023-09-13T21:34:04.526Z,163003.03
2023-09-13T21:37:08.636Z,163012.22
2023-09-13T21:40:15.449Z,163013.50
2023-09-13T21:43:20.241Z,162997.75
2023-09-13T21:46:24.381Z,162997.75
2023-09-13T21:49:28.467Z,163007.00
2023-09-13T21:52:32.481Z,162996.47
2023-09-13T21:55:39.362Z,162971.50
2023-09-13T21:58:43.788Z,162923.00
2023-09-13T22:01:48.090Z,162909.91
2023-09-13T22:04:52.046Z,162905.94
2023-09-13T22:07:56.163Z,162920.41
2023-09-13T22:11:01.665Z,162912.50
2023-09-13T22:14:05.925Z,162909.91
2023-09-13T22:17:09.987Z,162905.94
2023-09-13T22:20:14.368Z,162877.13
2023-09-13T22:23:20.065Z,162867.91
2023-09-13T22:26:24.202Z,162867.91
2023-09-13T22:29:28.416Z,162852.16
2023-09-13T22:32:34.483Z,162829.88
2023-09-13T22:35:38.882Z,162803.69
2023-09-13T22:38:51.320Z,162816.81
2023-09-13T22:42:05.442Z,162801.03
2023-09-13T22:45:09.632Z,162801.03
2023-09-13T22:48:13.305Z,162797.06
2023-09-13T22:51:17.728Z,162790.56
2023-09-13T22:54:21.929Z,162777.44
2023-09-13T22:57:26.302Z,162776.09
2023-09-13T23:00:33.792Z,162778.78
2023-09-13T23:03:45.433Z,162770.88
2023-09-13T23:06:50.993Z,162769.56
2023-09-13T23:09:55.035Z,162751.19
2023-09-13T23:13:00.779Z,162730.19
2023-09-13T23:16:06.893Z,162730.19
2023-09-13T23:19:12.708Z,162738.09
2023-09-13T23:22:16.920Z,162730.19
2023-09-13T23:25:21.080Z,162726.25
2023-09-13T23:28:25.124Z,162731.53
2023-09-13T23:31:34.973Z,162735.47
2023-09-13T23:34:41.213Z,162748.59
2023-09-13T23:37:45.471Z,162741.97
2023-09-13T23:40:49.196Z,162735.47
2023-09-13T23:43:53.168Z,162743.31
2023-09-13T23:46:57.220Z,162730.19
2023-09-13T23:50:01.670Z,162745.97
2023-09-13T23:53:06.059Z,162751.19
2023-09-13T23:56:10.421Z,162764.31
2023-09-13T23:59:17.855Z,162774.81
